sensor_id;sensor_type;location;lat;lon;timestamp;pressure;altitude;pressure_sealevel;temperature;humidity
64683;BME280;51107;47.652;19.016;2022-08-06T00:00:08;99565.28;;;22.72;50.52
64683;BME280;51107;47.652;19.016;2022-08-06T00:02:38;99566.47;;;22.64;50.92
64683;BME280;51107;47.652;19.016;2022-08-06T00:05:09;99559.44;;;22.58;50.19
64683;BME280;51107;47.652;19.016;2022-08-06T00:07:45;99564.88;;;22.63;50.66
64683;BME280;51107;47.652;19.016;2022-08-06T00:10:17;99564.63;;;22.65;51.04
64683;BME280;51107;47.652;19.016;2022-08-06T00:12:46;99569.50;;;22.85;49.98
64683;BME280;51107;47.652;19.016;2022-08-06T00:15:16;99560.72;;;22.96;50.54
64683;BME280;51107;47.652;19.016;2022-08-06T00:18:07;99571.66;;;23.00;50.54
64683;BME280;51107;47.652;19.016;2022-08-06T00:20:40;99580.06;;;22.80;51.87
64683;BME280;51107;47.652;19.016;2022-08-06T00:23:10;99579.44;;;22.89;51.66
64683;BME280;51107;47.652;19.016;2022-08-06T00:25:45;99591.22;;;22.94;51.47
64683;BME280;51107;47.652;19.016;2022-08-06T00:28:21;99583.28;;;22.82;52.17
64683;BME280;51107;47.652;19.016;2022-08-06T00:31:00;99594.12;;;22.80;51.11
64683;BME280;51107;47.652;19.016;2022-08-06T00:33:39;99582.13;;;22.78;52.07
64683;BME280;51107;47.652;19.016;2022-08-06T00:36:25;99594.63;;;22.65;51.92
64683;BME280;51107;47.652;19.016;2022-08-06T00:38:58;99586.00;;;22.58;51.79
64683;BME280;51107;47.652;19.016;2022-08-06T00:41:37;99596.72;;;22.63;52.14
64683;BME280;51107;47.652;19.016;2022-08-06T00:44:14;99586.38;;;22.26;52.58
64683;BME280;51107;47.652;19.016;2022-08-06T00:46:59;99589.94;;;22.20;53.49
64683;BME280;51107;47.652;19.016;2022-08-06T00:49:27;99590.28;;;22.23;53.67
64683;BME280;51107;47.652;19.016;2022-08-06T00:52:16;99587.84;;;22.10;53.38
64683;BME280;51107;47.652;19.016;2022-08-06T00:54:46;99581.97;;;22.20;53.58
64683;BME280;51107;47.652;19.016;2022-08-06T00:57:17;99585.53;;;22.26;53.15
64683;BME280;51107;47.652;19.016;2022-08-06T00:59:49;99586.81;;;22.23;53.32
64683;BME280;51107;47.652;19.016;2022-08-06T01:02:19;99586.81;;;22.23;52.87
64683;BME280;51107;47.652;19.016;2022-08-06T01:04:53;99577.13;;;22.29;51.92
64683;BME280;51107;47.652;19.016;2022-08-06T01:07:42;99575.84;;;22.31;51.61
64683;BME280;51107;47.652;19.016;2022-08-06T01:10:20;99573.34;;;22.36;51.52
64683;BME280;51107;47.652;19.016;2022-08-06T01:13:09;99575.28;;;22.29;51.60
64683;BME280;51107;47.652;19.016;2022-08-06T01:16:57;99572.63;;;22.29;51.11
64683;BME280;51107;47.652;19.016;2022-08-06T01:19:25;99574.25;;;22.18;52.46
64683;BME280;51107;47.652;19.016;2022-08-06T01:22:21;99566.53;;;22.41;51.92
64683;BME280;51107;47.652;19.016;2022-08-06T01:30:40;99576.91;;;22.42;53.25
64683;BME280;51107;47.652;19.016;2022-08-06T01:33:29;99564.66;;;22.29;53.11
64683;BME280;51107;47.652;19.016;2022-08-06T01:36:09;99572.19;;;22.44;52.93
64683;BME280;51107;47.652;19.016;2022-08-06T01:38:50;99567.69;;;22.21;53.36
64683;BME280;51107;47.652;19.016;2022-08-06T01:41:32;99569.75;;;22.31;53.21
64683;BME280;51107;47.652;19.016;2022-08-06T01:44:29;99562.59;;;22.08;54.41
64683;BME280;51107;47.652;19.016;2022-08-06T01:47:03;99566.41;;;21.88;54.36
64683;BME280;51107;47.652;19.016;2022-08-06T01:49:49;99564.91;;;21.92;54.17
64683;BME280;51107;47.652;19.016;2022-08-06T01:52:33;99563.97;;;21.98;53.58
64683;BME280;51107;47.652;19.016;2022-08-06T01:55:14;99557.19;;;22.02;53.13
64683;BME280;51107;47.652;19.016;2022-08-06T01:57:53;99566.87;;;22.09;53.09
64683;BME280;51107;47.652;19.016;2022-08-06T02:00:46;99561.91;;;21.77;55.47
64683;BME280;51107;47.652;19.016;2022-08-06T02:03:24;99561.56;;;21.73;54.79
64683;BME280;51107;47.652;19.016;2022-08-06T02:06:06;99557.31;;;21.84;54.47
64683;BME280;51107;47.652;19.016;2022-08-06T02:08:37;99563.62;;;21.83;54.61
64683;BME280;51107;47.652;19.016;2022-08-06T02:11:09;99556.03;;;21.86;54.92
64683;BME280;51107;47.652;19.016;2022-08-06T02:14:00;99556.94;;;21.80;53.95
64683;BME280;51107;47.652;19.016;2022-08-06T02:16:39;99557.78;;;21.81;54.16
64683;BME280;51107;47.652;19.016;2022-08-06T02:19:11;99561.09;;;21.76;55.55
64683;BME280;51107;47.652;19.016;2022-08-06T02:21:44;99566.63;;;21.75;55.62
64683;BME280;51107;47.652;19.016;2022-08-06T02:24:21;99566.06;;;21.73;55.80
64683;BME280;51107;47.652;19.016;2022-08-06T02:26:54;99562.06;;;21.51;55.86
64683;BME280;51107;47.652;19.016;2022-08-06T02:29:23;99569.09;;;21.46;56.05
64683;BME280;51107;47.652;19.016;2022-08-06T02:32:13;99565.47;;;21.59;57.02
64683;BME280;51107;47.652;19.016;2022-08-06T02:34:45;99569.06;;;21.64;56.57
64683;BME280;51107;47.652;19.016;2022-08-06T02:37:26;99570.06;;;21.63;56.07
64683;BME280;51107;47.652;19.016;2022-08-06T02:40:25;99567.06;;;21.60;55.99
64683;BME280;51107;47.652;19.016;2022-08-06T02:43:15;99572.19;;;21.43;56.45
64683;BME280;51107;47.652;19.016;2022-08-06T02:45:55;99567.59;;;21.50;56.07
64683;BME280;51107;47.652;19.016;2022-08-06T02:48:30;99570.53;;;21.60;56.25
64683;BME280;51107;47.652;19.016;2022-08-06T02:51:04;99574.22;;;21.59;56.43
64683;BME280;51107;47.652;19.016;2022-08-06T02:53:59;99569.88;;;21.34;57.43
64683;BME280;51107;47.652;19.016;2022-08-06T02:56:33;99563.78;;;21.34;57.13
64683;BME280;51107;47.652;19.016;2022-08-06T02:59:21;99565.28;;;21.42;56.87
64683;BME280;51107;47.652;19.016;2022-08-06T03:01:57;99557.78;;;21.38;57.22
64683;BME280;51107;47.652;19.016;2022-08-06T03:04:28;99559.87;;;21.36;57.64
64683;BME280;51107;47.652;19.016;2022-08-06T03:07:03;99563.41;;;21.30;57.88
64683;BME280;51107;47.652;19.016;2022-08-06T03:09:56;99566.00;;;21.18;57.67
64683;BME280;51107;47.652;19.016;2022-08-06T03:12:24;99571.50;;;21.05;58.17
64683;BME280;51107;47.652;19.016;2022-08-06T03:15:00;99562.41;;;21.13;57.62
64683;BME280;51107;47.652;19.016;2022-08-06T03:17:40;99572.53;;;21.04;58.10
64683;BME280;51107;47.652;19.016;2022-08-06T03:20:15;99571.28;;;21.07;59.84
64683;BME280;51107;47.652;19.016;2022-08-06T03:22:56;99570.38;;;21.13;58.63
64683;BME280;51107;47.652;19.016;2022-08-06T03:25:29;99571.66;;;21.10;58.37
64683;BME280;51107;47.652;19.016;2022-08-06T03:27:59;99573.94;;;21.18;57.28
64683;BME280;51107;47.652;19.016;2022-08-06T03:30:30;99578.72;;;21.28;57.30
64683;BME280;51107;47.652;19.016;2022-08-06T03:33:08;99567.69;;;21.31;58.45
64683;BME280;51107;47.652;19.016;2022-08-06T03:36:00;99576.41;;;21.20;59.24
64683;BME280;51107;47.652;19.016;2022-08-06T03:38:34;99567.84;;;21.18;59.27
64683;BME280;51107;47.652;19.016;2022-08-06T03:41:07;99566.44;;;21.03;60.15
64683;BME280;51107;47.652;19.016;2022-08-06T03:43:36;99571.59;;;20.98;60.43
64683;BME280;51107;47.652;19.016;2022-08-06T03:46:29;99569.50;;;21.00;59.98
64683;BME280;51107;47.652;19.016;2022-08-06T03:49:01;99573.94;;;21.18;59.02
64683;BME280;51107;47.652;19.016;2022-08-06T03:51:32;99573.06;;;21.25;57.79
64683;BME280;51107;47.652;19.016;2022-08-06T03:54:33;99568.34;;;21.27;58.33
64683;BME280;51107;47.652;19.016;2022-08-06T03:57:13;99563.88;;;21.27;57.78
64683;BME280;51107;47.652;19.016;2022-08-06T03:59:44;99566.75;;;21.26;59.14
64683;BME280;51107;47.652;19.016;2022-08-06T04:02:38;99576.97;;;21.22;58.60
64683;BME280;51107;47.652;19.016;2022-08-06T04:05:40;99572.84;;;21.26;60.36
64683;BME280;51107;47.652;19.016;2022-08-06T04:08:16;99577.16;;;21.09;61.43
64683;BME280;51107;47.652;19.016;2022-08-06T04:10:46;99575.84;;;20.69;60.40
64683;BME280;51107;47.652;19.016;2022-08-06T04:13:25;99588.28;;;20.99;60.85
64683;BME280;51107;47.652;19.016;2022-08-06T04:16:14;99587.84;;;21.02;60.69
64683;BME280;51107;47.652;19.016;2022-08-06T04:19:04;99589.84;;;20.88;62.46
64683;BME280;51107;47.652;19.016;2022-08-06T04:21:36;99596.31;;;20.92;60.59
64683;BME280;51107;47.652;19.016;2022-08-06T04:24:25;99588.81;;;20.89;60.01
64683;BME280;51107;47.652;19.016;2022-08-06T04:26:58;99599.06;;;21.16;61.42
64683;BME280;51107;47.652;19.016;2022-08-06T04:29:40;99603.78;;;21.14;59.68
64683;BME280;51107;47.652;19.016;2022-08-06T04:32:28;99610.63;;;21.33;60.86
64683;BME280;51107;47.652;19.016;2022-08-06T04:35:03;99601.91;;;21.14;59.47
64683;BME280;51107;47.652;19.016;2022-08-06T04:37:53;99596.00;;;21.31;60.09
64683;BME280;51107;47.652;19.016;2022-08-06T04:40:28;99598.13;;;21.41;58.97
64683;BME280;51107;47.652;19.016;2022-08-06T04:43:07;99608.59;;;21.47;60.16
64683;BME280;51107;47.652;19.016;2022-08-06T04:45:38;99598.81;;;21.48;59.57
64683;BME280;51107;47.652;19.016;2022-08-06T04:48:27;99606.94;;;21.53;59.50
64683;BME280;51107;47.652;19.016;2022-08-06T04:51:07;99607.66;;;21.42;58.82
64683;BME280;51107;47.652;19.016;2022-08-06T04:53:44;99601.25;;;21.49;59.89
64683;BME280;51107;47.652;19.016;2022-08-06T04:56:24;99608.44;;;21.61;58.99
64683;BME280;51107;47.652;19.016;2022-08-06T04:59:05;99606.16;;;21.76;58.99
64683;BME280;51107;47.652;19.016;2022-08-06T05:01:35;99612.37;;;21.82;59.02
64683;BME280;51107;47.652;19.016;2022-08-06T05:04:20;99610.69;;;21.87;59.33
64683;BME280;51107;47.652;19.016;2022-08-06T05:06:59;99613.47;;;22.04;58.32
64683;BME280;51107;47.652;19.016;2022-08-06T05:09:31;99616.34;;;22.15;58.88
64683;BME280;51107;47.652;19.016;2022-08-06T05:14:54;99623.19;;;22.34;58.26
64683;BME280;51107;47.652;19.016;2022-08-06T05:17:30;99614.28;;;22.41;57.92
64683;BME280;51107;47.652;19.016;2022-08-06T05:20:12;99614.84;;;22.54;57.67
64683;BME280;51107;47.652;19.016;2022-08-06T05:23:00;99618.41;;;22.60;57.50
64683;BME280;51107;47.652;19.016;2022-08-06T05:25:36;99619.66;;;22.69;57.31
64683;BME280;51107;47.652;19.016;2022-08-06T05:28:06;99616.41;;;22.79;57.96
64683;BME280;51107;47.652;19.016;2022-08-06T05:30:42;99618.94;;;22.86;57.08
64683;BME280;51107;47.652;19.016;2022-08-06T05:33:25;99618.56;;;22.94;57.77
64683;BME280;51107;47.652;19.016;2022-08-06T05:35:59;99623.62;;;23.07;55.71
64683;BME280;51107;47.652;19.016;2022-08-06T05:38:39;99619.75;;;23.27;54.79
64683;BME280;51107;47.652;19.016;2022-08-06T05:41:27;99626.81;;;23.50;51.68
64683;BME280;51107;47.652;19.016;2022-08-06T05:44:04;99632.50;;;23.88;50.53
64683;BME280;51107;47.652;19.016;2022-08-06T05:46:41;99629.53;;;24.01;50.15
64683;BME280;51107;47.652;19.016;2022-08-06T05:49:20;99629.81;;;24.22;49.00
64683;BME280;51107;47.652;19.016;2022-08-06T05:54:54;99631.53;;;24.50;48.17
64683;BME280;51107;47.652;19.016;2022-08-06T06:00:11;99625.75;;;24.75;48.61
64683;BME280;51107;47.652;19.016;2022-08-06T06:03:04;99624.75;;;24.82;48.25
64683;BME280;51107;47.652;19.016;2022-08-06T06:05:35;99637.56;;;25.07;47.06
64683;BME280;51107;47.652;19.016;2022-08-06T06:08:25;99626.25;;;25.22;46.14
64683;BME280;51107;47.652;19.016;2022-08-06T06:11:08;99630.44;;;25.35;45.82
64683;BME280;51107;47.652;19.016;2022-08-06T06:13:41;99626.94;;;25.62;44.07
64683;BME280;51107;47.652;19.016;2022-08-06T06:16:35;99628.34;;;25.69;44.53
64683;BME280;51107;47.652;19.016;2022-08-06T06:24:35;99647.53;;;25.66;51.16
64683;BME280;51107;47.652;19.016;2022-08-06T06:27:07;99645.97;;;25.70;49.63
64683;BME280;51107;47.652;19.016;2022-08-06T06:30:02;99651.03;;;25.72;49.32
64683;BME280;51107;47.652;19.016;2022-08-06T06:35:32;99645.34;;;25.96;50.18
64683;BME280;51107;47.652;19.016;2022-08-06T06:38:42;99648.41;;;26.09;49.57
64683;BME280;51107;47.652;19.016;2022-08-06T06:41:27;99654.94;;;26.29;50.12
64683;BME280;51107;47.652;19.016;2022-08-06T06:44:19;99653.41;;;26.38;46.62
64683;BME280;51107;47.652;19.016;2022-08-06T06:47:34;99654.62;;;26.68;46.28
64683;BME280;51107;47.652;19.016;2022-08-06T06:50:16;99652.66;;;27.11;45.57
64683;BME280;51107;47.652;19.016;2022-08-06T06:52:47;99663.66;;;27.15;44.46
64683;BME280;51107;47.652;19.016;2022-08-06T06:58:30;99660.47;;;27.23;45.63
64683;BME280;51107;47.652;19.016;2022-08-06T07:01:00;99657.56;;;27.40;43.94
64683;BME280;51107;47.652;19.016;2022-08-06T07:03:52;99661.06;;;27.51;44.79
64683;BME280;51107;47.652;19.016;2022-08-06T07:06:23;99665.63;;;27.92;42.40
64683;BME280;51107;47.652;19.016;2022-08-06T07:09:19;99662.44;;;28.05;42.00
64683;BME280;51107;47.652;19.016;2022-08-06T07:12:11;99657.84;;;28.26;41.08
64683;BME280;51107;47.652;19.016;2022-08-06T07:14:58;99669.06;;;28.44;41.71
64683;BME280;51107;47.652;19.016;2022-08-06T07:17:32;99671.41;;;28.76;40.59
64683;BME280;51107;47.652;19.016;2022-08-06T07:20:26;99670.22;;;29.03;41.57
64683;BME280;51107;47.652;19.016;2022-08-06T07:22:58;99670.41;;;29.12;40.14
64683;BME280;51107;47.652;19.016;2022-08-06T07:25:48;99665.91;;;29.07;40.37
64683;BME280;51107;47.652;19.016;2022-08-06T07:28:24;99666.34;;;29.30;39.48
64683;BME280;51107;47.652;19.016;2022-08-06T07:30:59;99667.47;;;29.58;38.35
64683;BME280;51107;47.652;19.016;2022-08-06T07:33:33;99668.81;;;29.95;37.96
64683;BME280;51107;47.652;19.016;2022-08-06T07:36:24;99677.78;;;29.80;39.29
64683;BME280;51107;47.652;19.016;2022-08-06T07:38:59;99670.94;;;30.28;39.20
64683;BME280;51107;47.652;19.016;2022-08-06T07:41:32;99677.31;;;30.86;37.18
64683;BME280;51107;47.652;19.016;2022-08-06T07:44:22;99677.59;;;31.27;36.77
64683;BME280;51107;47.652;19.016;2022-08-06T07:46:59;99671.97;;;31.43;36.12
64683;BME280;51107;47.652;19.016;2022-08-06T07:49:53;99677.81;;;31.83;33.10
64683;BME280;51107;47.652;19.016;2022-08-06T07:52:29;99666.34;;;32.52;31.48
64683;BME280;51107;47.652;19.016;2022-08-06T07:54:59;99673.47;;;32.90;31.13
64683;BME280;51107;47.652;19.016;2022-08-06T07:57:30;99669.81;;;33.08;30.76
64683;BME280;51107;47.652;19.016;2022-08-06T08:00:19;99670.06;;;32.98;30.83
64683;BME280;51107;47.652;19.016;2022-08-06T08:02:49;99675.56;;;32.79;31.67
64683;BME280;51107;47.652;19.016;2022-08-06T08:05:38;99673.09;;;33.19;29.76
64683;BME280;51107;47.652;19.016;2022-08-06T08:08:29;99675.28;;;33.53;28.99
64683;BME280;51107;47.652;19.016;2022-08-06T08:11:01;99667.50;;;33.52;28.95
64683;BME280;51107;47.652;19.016;2022-08-06T08:13:31;99673.44;;;33.85;27.72
64683;BME280;51107;47.652;19.016;2022-08-06T08:16:13;99681.13;;;34.24;26.71
64683;BME280;51107;47.652;19.016;2022-08-06T08:18:55;99685.38;;;34.16;26.57
64683;BME280;51107;47.652;19.016;2022-08-06T08:21:23;99680.91;;;34.43;27.34
64683;BME280;51107;47.652;19.016;2022-08-06T08:23:54;99679.81;;;34.52;27.25
64683;BME280;51107;47.652;19.016;2022-08-06T08:26:23;99681.47;;;34.80;26.09
64683;BME280;51107;47.652;19.016;2022-08-06T08:28:52;99682.78;;;34.82;25.44
64683;BME280;51107;47.652;19.016;2022-08-06T08:31:20;99681.63;;;34.66;26.01
64683;BME280;51107;47.652;19.016;2022-08-06T08:33:53;99683.63;;;35.00;26.48
64683;BME280;51107;47.652;19.016;2022-08-06T08:36:21;99682.03;;;35.17;25.85
64683;BME280;51107;47.652;19.016;2022-08-06T08:38:58;99682.19;;;35.56;25.24
64683;BME280;51107;47.652;19.016;2022-08-06T08:41:40;99678.66;;;35.29;25.67
64683;BME280;51107;47.652;19.016;2022-08-06T08:44:23;99683.25;;;35.98;24.10
64683;BME280;51107;47.652;19.016;2022-08-06T08:46:58;99680.63;;;35.46;26.40
64683;BME280;51107;47.652;19.016;2022-08-06T08:49:49;99687.84;;;35.98;26.78
64683;BME280;51107;47.652;19.016;2022-08-06T08:52:30;99689.53;;;36.59;24.52
64683;BME280;51107;47.652;19.016;2022-08-06T08:55:05;99687.66;;;36.50;24.00
64683;BME280;51107;47.652;19.016;2022-08-06T08:57:55;99700.81;;;36.69;23.54
64683;BME280;51107;47.652;19.016;2022-08-06T09:00:44;99695.25;;;35.71;24.27
64683;BME280;51107;47.652;19.016;2022-08-06T09:03:21;99689.66;;;35.85;26.88
64683;BME280;51107;47.652;19.016;2022-08-06T09:05:50;99691.72;;;36.44;24.13
64683;BME280;51107;47.652;19.016;2022-08-06T09:08:20;99688.41;;;36.21;24.80
64683;BME280;51107;47.652;19.016;2022-08-06T09:11:09;99689.16;;;36.48;24.62
64683;BME280;51107;47.652;19.016;2022-08-06T09:14:05;99680.25;;;37.19;25.05
64683;BME280;51107;47.652;19.016;2022-08-06T09:16:36;99685.38;;;37.12;23.89
64683;BME280;51107;47.652;19.016;2022-08-06T09:19:17;99688.31;;;37.07;24.04
64683;BME280;51107;47.652;19.016;2022-08-06T09:21:47;99685.09;;;37.35;24.82
64683;BME280;51107;47.652;19.016;2022-08-06T09:24:18;99688.37;;;37.19;23.16
64683;BME280;51107;47.652;19.016;2022-08-06T09:27:02;99689.13;;;37.96;23.49
64683;BME280;51107;47.652;19.016;2022-08-06T09:29:56;99685.59;;;37.83;22.94
64683;BME280;51107;47.652;19.016;2022-08-06T09:32:46;99680.03;;;37.79;22.68
64683;BME280;51107;47.652;19.016;2022-08-06T09:35:27;99676.97;;;37.47;22.43
64683;BME280;51107;47.652;19.016;2022-08-06T09:38:13;99681.53;;;38.01;23.27
64683;BME280;51107;47.652;19.016;2022-08-06T09:41:07;99684.78;;;37.49;24.12
64683;BME280;51107;47.652;19.016;2022-08-06T09:43:44;99678.56;;;37.06;24.99
64683;BME280;51107;47.652;19.016;2022-08-06T09:46:40;99681.44;;;37.31;24.47
64683;BME280;51107;47.652;19.016;2022-08-06T09:49:13;99676.59;;;37.36;25.34
64683;BME280;51107;47.652;19.016;2022-08-06T09:52:16;99677.47;;;37.07;23.42
64683;BME280;51107;47.652;19.016;2022-08-06T09:54:47;99670.22;;;37.66;23.20
64683;BME280;51107;47.652;19.016;2022-08-06T09:57:21;99679.75;;;38.05;23.40
64683;BME280;51107;47.652;19.016;2022-08-06T10:00:04;99676.81;;;38.60;24.73
64683;BME280;51107;47.652;19.016;2022-08-06T10:02:42;99673.72;;;37.54;24.10
64683;BME280;51107;47.652;19.016;2022-08-06T10:05:13;99670.19;;;36.99;25.00
64683;BME280;51107;47.652;19.016;2022-08-06T10:07:47;99669.25;;;37.70;27.64
64683;BME280;51107;47.652;19.016;2022-08-06T10:10:46;99669.44;;;37.65;24.10
64683;BME280;51107;47.652;19.016;2022-08-06T10:13:25;99671.06;;;38.25;25.07
64683;BME280;51107;47.652;19.016;2022-08-06T10:16:18;99670.69;;;38.14;28.60
64683;BME280;51107;47.652;19.016;2022-08-06T10:18:49;99670.00;;;38.54;25.79
64683;BME280;51107;47.652;19.016;2022-08-06T10:21:31;99668.44;;;38.28;25.36
64683;BME280;51107;47.652;19.016;2022-08-06T10:24:10;99666.75;;;38.23;24.71
64683;BME280;51107;47.652;19.016;2022-08-06T10:26:40;99667.47;;;38.86;23.17
64683;BME280;51107;47.652;19.016;2022-08-06T10:29:12;99661.78;;;38.38;24.40
64683;BME280;51107;47.652;19.016;2022-08-06T10:31:43;99665.47;;;38.70;23.31
64683;BME280;51107;47.652;19.016;2022-08-06T10:34:24;99659.94;;;38.42;22.84
64683;BME280;51107;47.652;19.016;2022-08-06T10:37:03;99665.59;;;38.49;22.66
64683;BME280;51107;47.652;19.016;2022-08-06T10:39:56;99651.84;;;37.84;24.27
64683;BME280;51107;47.652;19.016;2022-08-06T10:42:38;99672.13;;;37.99;25.18
64683;BME280;51107;47.652;19.016;2022-08-06T10:45:09;99671.50;;;38.39;23.87
64683;BME280;51107;47.652;19.016;2022-08-06T10:47:44;99652.72;;;37.42;24.76
64683;BME280;51107;47.652;19.016;2022-08-06T10:50:34;99669.41;;;37.99;24.41
64683;BME280;51107;47.652;19.016;2022-08-06T10:53:15;99675.59;;;38.33;25.95
64683;BME280;51107;47.652;19.016;2022-08-06T10:56:14;99667.97;;;38.14;24.06
64683;BME280;51107;47.652;19.016;2022-08-06T10:58:49;99665.81;;;38.07;25.05
64683;BME280;51107;47.652;19.016;2022-08-06T11:01:33;99663.44;;;37.60;24.70
64683;BME280;51107;47.652;19.016;2022-08-06T11:12:39;99660.06;;;37.75;23.58
64683;BME280;51107;47.652;19.016;2022-08-06T11:15:18;99648.03;;;37.30;26.51
64683;BME280;51107;47.652;19.016;2022-08-06T11:18:11;99646.19;;;37.01;25.44
64683;BME280;51107;47.652;19.016;2022-08-06T11:20:50;99647.03;;;36.71;27.22
64683;BME280;51107;47.652;19.016;2022-08-06T11:23:22;99646.94;;;36.59;27.91
64683;BME280;51107;47.652;19.016;2022-08-06T11:26:32;99650.97;;;36.83;25.40
64683;BME280;51107;47.652;19.016;2022-08-06T11:29:07;99631.34;;;36.77;26.24
64683;BME280;51107;47.652;19.016;2022-08-06T11:31:42;99646.69;;;36.73;25.29
64683;BME280;51107;47.652;19.016;2022-08-06T11:34:41;99637.41;;;36.53;27.02
64683;BME280;51107;47.652;19.016;2022-08-06T11:37:44;99634.91;;;36.39;26.44
64683;BME280;51107;47.652;19.016;2022-08-06T11:40:57;99635.25;;;36.37;26.30
64683;BME280;51107;47.652;19.016;2022-08-06T11:46:39;99633.59;;;36.15;26.29
64683;BME280;51107;47.652;19.016;2022-08-06T11:51:55;99624.88;;;36.01;26.59
64683;BME280;51107;47.652;19.016;2022-08-06T11:55:03;99622.53;;;35.73;27.02
64683;BME280;51107;47.652;19.016;2022-08-06T11:57:40;99629.66;;;35.95;27.64
64683;BME280;51107;47.652;19.016;2022-08-06T12:00:18;99632.06;;;35.97;31.23
64683;BME280;51107;47.652;19.016;2022-08-06T12:02:52;99614.59;;;36.15;27.26
64683;BME280;51107;47.652;19.016;2022-08-06T12:13:52;99625.50;;;35.07;32.69
64683;BME280;51107;47.652;19.016;2022-08-06T12:16:40;99617.16;;;34.68;32.65
64683;BME280;51107;47.652;19.016;2022-08-06T12:19:21;99627.22;;;34.27;34.05
64683;BME280;51107;47.652;19.016;2022-08-06T12:21:52;99612.03;;;34.09;34.19
64683;BME280;51107;47.652;19.016;2022-08-06T12:24:25;99621.81;;;34.27;33.90
64683;BME280;51107;47.652;19.016;2022-08-06T12:27:15;99619.47;;;34.34;34.51
64683;BME280;51107;47.652;19.016;2022-08-06T12:29:55;99616.47;;;34.45;34.85
64683;BME280;51107;47.652;19.016;2022-08-06T12:32:29;99619.06;;;34.76;34.77
64683;BME280;51107;47.652;19.016;2022-08-06T12:35:00;99626.38;;;34.67;35.15
64683;BME280;51107;47.652;19.016;2022-08-06T12:37:43;99622.44;;;34.73;33.00
64683;BME280;51107;47.652;19.016;2022-08-06T12:40:19;99616.38;;;34.76;34.09
64683;BME280;51107;47.652;19.016;2022-08-06T12:45:43;99631.78;;;34.67;33.78
64683;BME280;51107;47.652;19.016;2022-08-06T12:48:33;99629.63;;;34.86;33.70
64683;BME280;51107;47.652;19.016;2022-08-06T12:51:10;99642.59;;;34.49;33.78
64683;BME280;51107;47.652;19.016;2022-08-06T12:53:49;99641.84;;;34.26;34.18
64683;BME280;51107;47.652;19.016;2022-08-06T12:56:21;99648.50;;;34.20;34.62
64683;BME280;51107;47.652;19.016;2022-08-06T12:59:01;99641.53;;;33.88;34.68
64683;BME280;51107;47.652;19.016;2022-08-06T13:01:34;99646.88;;;33.79;35.22
64683;BME280;51107;47.652;19.016;2022-08-06T13:04:24;99641.09;;;33.94;35.23
64683;BME280;51107;47.652;19.016;2022-08-06T13:07:00;99640.56;;;34.24;34.57
64683;BME280;51107;47.652;19.016;2022-08-06T13:09:31;99635.22;;;34.01;34.43
64683;BME280;51107;47.652;19.016;2022-08-06T13:12:19;99644.50;;;34.17;34.29
64683;BME280;51107;47.652;19.016;2022-08-06T13:15:13;99640.31;;;34.34;33.79
64683;BME280;51107;47.652;19.016;2022-08-06T13:20:53;99644.94;;;34.42;33.82
64683;BME280;51107;47.652;19.016;2022-08-06T13:23:29;99639.72;;;34.54;33.15
64683;BME280;51107;47.652;19.016;2022-08-06T13:26:34;99628.59;;;34.56;32.63
64683;BME280;51107;47.652;19.016;2022-08-06T13:29:23;99631.28;;;34.56;33.18
64683;BME280;51107;47.652;19.016;2022-08-06T13:32:12;99645.13;;;34.54;33.54
64683;BME280;51107;47.652;19.016;2022-08-06T13:35:05;99649.09;;;34.48;33.34
64683;BME280;51107;47.652;19.016;2022-08-06T13:37:52;99650.97;;;34.39;34.03
64683;BME280;51107;47.652;19.016;2022-08-06T13:40:45;99660.19;;;34.29;34.19
64683;BME280;51107;47.652;19.016;2022-08-06T13:43:39;99657.66;;;34.42;33.61
64683;BME280;51107;47.652;19.016;2022-08-06T13:46:23;99653.84;;;34.02;34.35
64683;BME280;51107;47.652;19.016;2022-08-06T13:48:57;99665.44;;;34.03;34.22
64683;BME280;51107;47.652;19.016;2022-08-06T13:51:29;99659.94;;;33.85;34.64
64683;BME280;51107;47.652;19.016;2022-08-06T13:54:03;99661.59;;;33.73;34.51
64683;BME280;51107;47.652;19.016;2022-08-06T13:56:47;99657.09;;;33.68;35.36
64683;BME280;51107;47.652;19.016;2022-08-06T13:59:21;99655.38;;;33.72;35.28
64683;BME280;51107;47.652;19.016;2022-08-06T14:02:09;99650.56;;;33.60;34.96
64683;BME280;51107;47.652;19.016;2022-08-06T14:04:39;99649.81;;;33.46;35.10
64683;BME280;51107;47.652;19.016;2022-08-06T14:07:17;99649.22;;;33.49;36.46
64683;BME280;51107;47.652;19.016;2022-08-06T14:09:47;99659.75;;;33.59;34.90
64683;BME280;51107;47.652;19.016;2022-08-06T14:12:37;99651.66;;;33.59;35.60
64683;BME280;51107;47.652;19.016;2022-08-06T14:15:08;99647.78;;;33.74;35.95
64683;BME280;51107;47.652;19.016;2022-08-06T14:17:41;99649.56;;;33.79;36.21
64683;BME280;51107;47.652;19.016;2022-08-06T14:20:13;99649.00;;;33.91;36.53
64683;BME280;51107;47.652;19.016;2022-08-06T14:22:53;99640.69;;;33.78;35.74
64683;BME280;51107;47.652;19.016;2022-08-06T14:25:23;99651.69;;;33.68;35.76
64683;BME280;51107;47.652;19.016;2022-08-06T14:27:55;99653.88;;;33.57;36.28
64683;BME280;51107;47.652;19.016;2022-08-06T14:30:24;99652.47;;;33.60;35.74
64683;BME280;51107;47.652;19.016;2022-08-06T14:33:01;99657.63;;;33.47;35.58
64683;BME280;51107;47.652;19.016;2022-08-06T14:35:46;99652.22;;;33.47;35.99
64683;BME280;51107;47.652;19.016;2022-08-06T14:38:20;99658.22;;;33.44;36.08
64683;BME280;51107;47.652;19.016;2022-08-06T14:41:02;99681.06;;;33.38;36.22
64683;BME280;51107;47.652;19.016;2022-08-06T14:44:19;99670.31;;;33.10;37.81
64683;BME280;51107;47.652;19.016;2022-08-06T14:47:08;99679.66;;;32.90;37.93
64683;BME280;51107;47.652;19.016;2022-08-06T14:49:47;99695.44;;;32.69;37.78
64683;BME280;51107;47.652;19.016;2022-08-06T14:52:19;99698.31;;;32.31;38.76